createdAt,value
2018-05-27T00:00:50.968Z,13.10
2018-05-27T00:01:50.840Z,9.80
2018-05-27T00:02:50.717Z,9.60
2018-05-27T00:03:50.600Z,11.20
2018-05-27T00:04:50.476Z,10.00
2018-05-27T00:05:50.352Z,10.60
2018-05-27T00:06:50.228Z,11.70
2018-05-27T00:07:50.107Z,9.70
2018-05-27T00:08:49.986Z,12.30
2018-05-27T00:09:49.864Z,9.80
2018-05-27T00:10:49.743Z,9.20
2018-05-27T00:11:49.619Z,16.00
2018-05-27T00:12:49.495Z,8.70
2018-05-27T00:13:49.412Z,10.80
2018-05-27T00:14:49.250Z,8.00
2018-05-27T00:15:49.130Z,10.00
2018-05-27T00:16:49.008Z,11.30
2018-05-27T00:17:48.884Z,9.10
2018-05-27T00:18:48.759Z,8.80
2018-05-27T00:19:48.641Z,10.20
2018-05-27T00:20:48.516Z,12.10
2018-05-27T00:21:48.394Z,11.60
2018-05-27T00:22:48.272Z,13.30
2018-05-27T00:23:48.148Z,12.80
2018-05-27T00:24:48.029Z,9.50
2018-05-27T00:25:47.909Z,12.00
2018-05-27T00:26:47.781Z,11.80
2018-05-27T00:27:47.659Z,9.30
2018-05-27T00:28:47.539Z,8.40
2018-05-27T00:29:47.413Z,9.90
2018-05-27T00:30:47.291Z,10.40
2018-05-27T00:31:47.171Z,10.50
2018-05-27T00:32:47.051Z,9.50
2018-05-27T00:33:46.924Z,9.50
2018-05-27T00:34:46.802Z,11.70
2018-05-27T00:35:46.681Z,8.20
2018-05-27T00:36:46.561Z,9.00
2018-05-27T00:37:46.434Z,10.10
2018-05-27T00:38:46.318Z,11.00
2018-05-27T00:39:46.191Z,10.10
2018-05-27T00:40:46.070Z,12.80
2018-05-27T00:41:45.953Z,10.40
2018-05-27T00:42:45.830Z,9.40
2018-05-27T00:43:45.700Z,12.20
2018-05-27T00:44:45.580Z,10.00
2018-05-27T00:45:45.460Z,11.60
2018-05-27T00:46:45.333Z,11.90
2018-05-27T00:47:45.210Z,12.40
2018-05-27T00:48:45.090Z,11.10
2018-05-27T00:49:44.966Z,15.30
2018-05-27T00:50:44.846Z,14.90
2018-05-27T00:51:44.722Z,13.00
2018-05-27T00:52:44.598Z,12.10
2018-05-27T00:53:44.475Z,9.90
2018-05-27T00:54:44.349Z,10.70
2018-05-27T00:55:44.231Z,14.80
2018-05-27T00:56:44.105Z,11.30
2018-05-27T00:57:43.982Z,11.60
2018-05-27T00:58:43.859Z,12.80
2018-05-27T00:59:43.735Z,14.60
2018-05-27T01:00:43.614Z,16.10
2018-05-27T01:01:43.487Z,12.40
2018-05-27T01:02:43.365Z,10.80
2018-05-27T01:03:43.245Z,12.50
2018-05-27T01:04:43.122Z,12.80
2018-05-27T01:05:42.998Z,13.50
2018-05-27T01:06:42.878Z,12.40
2018-05-27T01:07:42.751Z,10.80
2018-05-27T01:08:42.628Z,10.90
2018-05-27T01:09:42.504Z,12.20
2018-05-27T01:10:42.383Z,10.10
2018-05-27T01:11:42.260Z,11.60
2018-05-27T01:12:42.138Z,10.70
2018-05-27T01:13:42.012Z,9.80
2018-05-27T01:14:41.889Z,12.20
2018-05-27T01:15:41.764Z,9.00
2018-05-27T01:16:41.644Z,11.60
2018-05-27T01:17:41.519Z,11.20
2018-05-27T01:18:41.394Z,10.90
2018-05-27T01:19:41.271Z,13.00
2018-05-27T01:20:41.149Z,12.00
2018-05-27T01:21:41.030Z,14.80
2018-05-27T01:22:40.903Z,13.00
2018-05-27T01:23:40.792Z,11.80
2018-05-27T01:24:40.656Z,12.40
2018-05-27T01:25:40.530Z,11.20
2018-05-27T01:26:40.408Z,12.50
2018-05-27T01:27:40.284Z,12.40
2018-05-27T01:28:40.164Z,11.10
2018-05-27T01:29:40.038Z,11.20
2018-05-27T01:30:39.916Z,13.70
2018-05-27T01:31:39.792Z,12.60
2018-05-27T01:32:39.667Z,12.90
2018-05-27T01:33:39.547Z,10.70
2018-05-27T01:34:39.421Z,14.10
2018-05-27T01:35:39.297Z,13.70
2018-05-27T01:36:39.177Z,11.20
2018-05-27T01:37:39.048Z,11.50
2018-05-27T01:38:38.924Z,13.20
2018-05-27T01:39:38.802Z,11.30
2018-05-27T01:40:38.679Z,12.60
2018-05-27T01:41:38.554Z,11.10
2018-05-27T01:42:38.430Z,11.40
2018-05-27T01:43:38.313Z,11.20
2018-05-27T01:44:38.182Z,12.70
2018-05-27T01:45:38.059Z,11.60
2018-05-27T01:46:37.937Z,12.40
2018-05-27T01:47:37.814Z,10.30
2018-05-27T01:48:37.691Z,13.70
2018-05-27T01:49:37.564Z,9.90
2018-05-27T01:50:37.448Z,11.80
2018-05-27T01:51:37.318Z,13.40
2018-05-27T01:52:37.195Z,11.30
2018-05-27T01:53:37.070Z,13.40
2018-05-27T01:54:36.949Z,10.70
2018-05-27T01:55:36.824Z,10.10
2018-05-27T01:56:36.702Z,10.40
2018-05-27T01:57:36.576Z,13.00
2018-05-27T01:58:36.451Z,10.60
2018-05-27T01:59:36.331Z,11.90
2018-05-27T02:00:36.205Z,10.30
2018-05-27T02:01:36.086Z,9.00
2018-05-27T02:02:35.957Z,11.80
2018-05-27T02:03:35.836Z,10.80
2018-05-27T02:04:35.713Z,13.00
2018-05-27T02:05:35.589Z,13.10
2018-05-27T02:06:35.465Z,14.90
2018-05-27T02:07:35.342Z,12.20
2018-05-27T02:08:35.216Z,10.70
2018-05-27T02:09:35.095Z,11.30
2018-05-27T02:10:34.968Z,11.40
2018-05-27T02:11:34.848Z,12.40
2018-05-27T02:12:34.726Z,12.00
2018-05-27T02:13:34.597Z,11.70
2018-05-27T02:14:34.476Z,9.80
2018-05-27T02:15:34.355Z,11.20
2018-05-27T02:16:34.227Z,9.60
2018-05-27T02:17:34.103Z,13.70
2018-05-27T02:18:33.980Z,10.00
2018-05-27T02:19:33.858Z,11.20
2018-05-27T02:20:33.733Z,12.70
2018-05-27T02:21:33.610Z,11.20
2018-05-27T02:22:33.486Z,9.80
2018-05-27T02:23:33.363Z,14.00
2018-05-27T02:24:33.239Z,11.40
2018-05-27T02:25:33.113Z,14.00
2018-05-27T02:26:33.022Z,12.70
2018-05-27T02:27:32.865Z,15.70
2018-05-27T02:28:32.744Z,11.70
2018-05-27T02:29:32.617Z,11.40
2018-05-27T02:30:32.493Z,12.30
2018-05-27T02:31:32.371Z,9.40
2018-05-27T02:32:32.252Z,9.40
2018-05-27T02:33:32.124Z,8.90
2018-05-27T02:34:31.998Z,9.00
2018-05-27T02:35:31.876Z,10.40
2018-05-27T02:36:31.755Z,11.80
2018-05-27T02:37:31.630Z,8.70
2018-05-27T02:38:31.507Z,11.30
2018-05-27T02:39:31.385Z,8.80
2018-05-27T02:40:31.257Z,10.30
2018-05-27T02:41:31.134Z,11.50
2018-05-27T02:42:31.012Z,10.70
2018-05-27T02:43:30.886Z,9.40
2018-05-27T02:44:30.764Z,12.00
2018-05-27T02:45:30.641Z,14.30
2018-05-27T02:46:30.517Z,9.20
2018-05-27T02:47:30.396Z,13.50
2018-05-27T02:48:30.272Z,13.00
2018-05-27T02:49:30.148Z,10.70
2018-05-27T02:50:30.075Z,12.40
2018-05-27T02:51:29.897Z,13.10
2018-05-27T02:52:29.778Z,11.60
2018-05-27T02:53:29.649Z,13.20
2018-05-27T02:54:29.526Z,9.50
2018-05-27T02:55:29.405Z,11.50
2018-05-27T02:56:29.278Z,10.40
2018-05-27T02:57:29.153Z,11.90
2018-05-27T02:58:29.030Z,12.00
2018-05-27T02:59:28.905Z,11.00
2018-05-27T03:00:28.784Z,10.90
2018-05-27T03:01:28.656Z,12.00
2018-05-27T03:02:28.534Z,14.60
2018-05-27T03:03:28.411Z,11.60
2018-05-27T03:04:28.287Z,11.00
2018-05-27T03:05:28.163Z,11.80
2018-05-27T03:06:28.038Z,11.80
2018-05-27T03:07:27.915Z,13.40
2018-05-27T03:08:27.788Z,12.90
2018-05-27T03:09:27.667Z,12.80
2018-05-27T03:10:27.540Z,14.60
2018-05-27T03:11:27.418Z,10.60
2018-05-27T03:12:27.294Z,14.70
2018-05-27T03:13:27.170Z,14.90
2018-05-27T03:14:27.045Z,13.20
2018-05-27T03:15:26.930Z,10.70
2018-05-27T03:16:26.797Z,14.10
2018-05-27T03:17:26.670Z,13.20
2018-05-27T03:18:26.549Z,11.90
2018-05-27T03:19:26.421Z,10.90
2018-05-27T03:20:26.299Z,11.80
2018-05-27T03:21:26.175Z,12.00
2018-05-27T03:22:26.053Z,12.10
2018-05-27T03:23:25.925Z,12.30
2018-05-27T03:24:25.801Z,13.00
2018-05-27T03:25:25.680Z,12.80
2018-05-27T03:26:25.553Z,14.90
2018-05-27T03:27:25.429Z,12.10
2018-05-27T03:28:25.307Z,11.80
2018-05-27T03:29:25.182Z,14.00
2018-05-27T03:30:25.060Z,12.40
2018-05-27T03:31:24.933Z,12.70
2018-05-27T03:32:24.809Z,12.30
2018-05-27T03:33:24.683Z,12.00
2018-05-27T03:34:24.558Z,9.40
2018-05-27T03:35:24.442Z,12.60
2018-05-27T03:36:24.311Z,9.10
2018-05-27T03:37:24.188Z,10.80
2018-05-27T03:38:24.063Z,12.20
2018-05-27T03:39:23.938Z,10.70
2018-05-27T03:40:23.817Z,14.30
2018-05-27T03:41:23.689Z,11.50
2018-05-27T03:42:23.569Z,11.40
2018-05-27T03:43:23.444Z,11.20
2018-05-27T03:44:23.317Z,13.70
2018-05-27T03:45:23.193Z,11.10
2018-05-27T03:46:23.070Z,12.00
2018-05-27T03:47:22.942Z,11.60
2018-05-27T03:48:22.821Z,8.60
2018-05-27T03:49:22.696Z,8.90
2018-05-27T03:50:22.571Z,10.60
2018-05-27T03:51:22.449Z,12.30
2018-05-27T03:52:22.323Z,9.60
2018-05-27T03:53:22.203Z,9.90
2018-05-27T03:54:22.074Z,10.80
2018-05-27T03:55:21.950Z,12.60
2018-05-27T03:56:21.831Z,9.80
2018-05-27T03:57:21.705Z,10.90
2018-05-27T03:58:21.577Z,12.50
2018-05-27T03:59:21.455Z,10.60
2018-05-27T04:00:21.330Z,9.70
2018-05-27T04:01:21.206Z,11.20
2018-05-27T04:02:21.081Z,14.90
2018-05-27T04:03:20.956Z,11.60
2018-05-27T04:04:20.836Z,8.30
2018-05-27T04:05:20.712Z,12.90
2018-05-27T04:06:20.590Z,12.70
2018-05-27T04:07:20.459Z,14.50
2018-05-27T04:08:20.337Z,10.90
2018-05-27T04:09:20.209Z,10.30
2018-05-27T04:10:20.088Z,9.30
2018-05-27T04:11:19.961Z,15.00
2018-05-27T04:12:19.840Z,12.50
2018-05-27T04:13:19.713Z,12.10
2018-05-27T04:14:19.588Z,14.90
2018-05-27T04:15:19.465Z,14.50
2018-05-27T04:16:19.341Z,12.60
2018-05-27T04:17:19.213Z,11.90
2018-05-27T04:18:19.088Z,15.10
2018-05-27T04:19:18.968Z,13.30
2018-05-27T04:20:18.842Z,8.70
2018-05-27T04:21:18.717Z,11.90
2018-05-27T04:22:18.590Z,8.60
2018-05-27T04:23:18.466Z,16.10
2018-05-27T04:24:18.342Z,11.40
2018-05-27T04:25:18.216Z,11.70
2018-05-27T04:26:18.093Z,11.80
2018-05-27T04:27:17.973Z,11.10
2018-05-27T04:28:17.846Z,13.40
2018-05-27T04:29:17.721Z,10.00
2018-05-27T04:30:17.595Z,11.20
2018-05-27T04:31:17.471Z,13.40
2018-05-27T04:32:17.347Z,12.80
2018-05-27T04:33:17.219Z,9.50
2018-05-27T04:34:17.098Z,10.60
2018-05-27T04:35:16.971Z,9.20
2018-05-27T04:36:16.846Z,12.70
2018-05-27T04:37:16.723Z,11.70
2018-05-27T04:38:16.597Z,10.40
2018-05-27T04:39:16.477Z,11.90
2018-05-27T04:40:16.359Z,11.40
2018-05-27T04:41:16.225Z,11.60
2018-05-27T04:42:16.101Z,10.80
2018-05-27T04:43:15.977Z,11.60
2018-05-27T04:44:15.853Z,11.80
2018-05-27T04:45:15.727Z,9.90
2018-05-27T04:46:15.604Z,11.40
2018-05-27T04:47:15.485Z,9.70
2018-05-27T04:48:15.361Z,10.80
2018-05-27T04:49:15.232Z,9.60
2018-05-27T04:50:15.108Z,11.90
2018-05-27T04:51:14.983Z,11.40
2018-05-27T04:52:14.859Z,10.60
2018-05-27T04:53:14.738Z,10.60
2018-05-27T04:54:14.615Z,10.00
2018-05-27T04:55:14.491Z,11.30
2018-05-27T04:56:14.365Z,10.70
2018-05-27T04:57:14.242Z,8.30
2018-05-27T04:58:14.119Z,11.60
2018-05-27T04:59:13.995Z,9.40
2018-05-27T05:00:13.871Z,12.00
2018-05-27T05:01:13.749Z,10.00
2018-05-27T05:02:13.623Z,10.90
2018-05-27T05:03:13.499Z,8.50
2018-05-27T05:04:13.378Z,9.20
2018-05-27T05:05:13.254Z,8.30
2018-05-27T05:06:13.131Z,8.60
2018-05-27T05:07:13.006Z,12.00
2018-05-27T05:08:12.885Z,10.00
2018-05-27T05:09:12.758Z,11.80
2018-05-27T05:10:12.636Z,9.30
2018-05-27T05:11:12.512Z,10.10
2018-05-27T05:12:12.390Z,10.40
2018-05-27T05:13:12.268Z,8.10
2018-05-27T05:14:12.145Z,10.20
2018-05-27T05:15:12.019Z,9.60
2018-05-27T05:16:11.897Z,8.20
2018-05-27T05:17:11.773Z,12.80
2018-05-27T05:18:11.651Z,9.60
2018-05-27T05:19:11.530Z,11.20
2018-05-27T05:20:11.406Z,7.20
2018-05-27T05:21:11.283Z,8.10
2018-05-27T05:22:11.190Z,11.40
2018-05-27T05:23:11.038Z,8.60
2018-05-27T05:24:10.915Z,7.10
2018-05-27T05:25:10.794Z,10.30
2018-05-27T05:26:10.671Z,11.50
2018-05-27T05:27:10.549Z,9.80
2018-05-27T05:28:10.427Z,10.00
2018-05-27T05:29:10.302Z,7.40
2018-05-27T05:30:10.178Z,10.50
2018-05-27T05:31:10.059Z,10.40
2018-05-27T05:32:09.935Z,8.40
2018-05-27T05:33:09.812Z,10.70
2018-05-27T05:34:09.689Z,9.10
2018-05-27T05:35:09.568Z,10.10
2018-05-27T05:36:09.445Z,8.40
2018-05-27T05:37:09.323Z,9.40
2018-05-27T05:38:09.204Z,10.10
2018-05-27T05:39:09.080Z,11.10
2018-05-27T05:40:08.956Z,9.40
2018-05-27T05:41:08.835Z,10.70
2018-05-27T05:42:08.711Z,7.00
2018-05-27T05:43:08.591Z,8.20
2018-05-27T05:44:08.467Z,7.50
2018-05-27T05:45:08.345Z,7.20
2018-05-27T05:46:08.222Z,7.40
2018-05-27T05:47:08.100Z,8.70
2018-05-27T05:48:08.001Z,11.60
2018-05-27T05:49:07.852Z,10.80
2018-05-27T05:50:07.732Z,9.70
2018-05-27T05:51:07.611Z,8.30
2018-05-27T05:52:07.485Z,8.30
2018-05-27T05:53:07.363Z,10.30
2018-05-27T05:54:07.242Z,10.50
2018-05-27T05:55:07.121Z,11.10
2018-05-27T05:56:06.997Z,8.10
2018-05-27T05:57:06.904Z,9.10
2018-05-27T05:58:06.889Z,7.40
2018-05-27T05:59:06.631Z,10.60
2018-05-27T06:00:06.509Z,8.60
2018-05-27T06:01:06.390Z,9.00
2018-05-27T06:02:06.264Z,10.40
2018-05-27T06:03:06.145Z,8.10
2018-05-27T06:04:06.021Z,11.40
2018-05-27T06:05:06.039Z,9.10
2018-05-27T06:06:05.777Z,7.40
2018-05-27T06:07:05.655Z,9.30
2018-05-27T06:08:05.532Z,6.00
2018-05-27T06:09:05.408Z,9.40
2018-05-27T06:10:05.455Z,7.30
2018-05-27T06:11:05.167Z,7.90
2018-05-27T06:12:05.043Z,10.40
2018-05-27T06:13:04.924Z,7.80
2018-05-27T06:14:04.800Z,6.80
2018-05-27T06:15:04.679Z,8.00
2018-05-27T06:16:04.556Z,11.30
2018-05-27T06:17:04.435Z,8.40
2018-05-27T06:18:04.310Z,11.10
2018-05-27T06:19:04.192Z,10.70
2018-05-27T06:20:04.067Z,9.40
2018-05-27T06:21:03.949Z,9.80
2018-05-27T06:22:03.837Z,8.60
2018-05-27T06:23:03.703Z,8.90
2018-05-27T06:24:03.581Z,7.60
2018-05-27T06:25:03.457Z,9.10
2018-05-27T06:26:03.603Z,8.60
2018-05-27T06:27:03.213Z,6.80
2018-05-27T06:28:03.091Z,7.20
2018-05-27T06:29:02.970Z,10.80
2018-05-27T06:30:02.848Z,8.30
2018-05-27T06:31:02.730Z,7.50
2018-05-27T06:32:02.621Z,8.40
2018-05-27T06:33:02.483Z,7.60
2018-05-27T06:34:02.363Z,8.70
2018-05-27T06:35:02.239Z,8.70
2018-05-27T06:36:02.120Z,6.90
2018-05-27T06:37:01.997Z,9.20
2018-05-27T06:38:01.893Z,7.70
2018-05-27T06:39:01.758Z,8.60
2018-05-27T06:40:01.634Z,10.30
2018-05-27T06:41:01.509Z,8.00
2018-05-27T06:42:01.392Z,9.30
2018-05-27T06:43:01.267Z,11.10
2018-05-27T06:44:01.147Z,7.90
2018-05-27T06:45:01.025Z,8.50
2018-05-27T06:46:00.905Z,7.00
2018-05-27T06:47:00.787Z,8.70
2018-05-27T06:48:00.730Z,7.90
2018-05-27T06:49:00.541Z,7.80
2018-05-27T06:50:00.421Z,8.90
2018-05-27T06:51:00.295Z,10.20
2018-05-27T06:52:00.183Z,8.40
2018-05-27T06:53:00.055Z,9.60
2018-05-27T06:53:59.933Z,7.90
2018-05-27T06:54:59.812Z,9.60
2018-05-27T06:55:59.772Z,7.60
2018-05-27T06:56:59.567Z,9.50
2018-05-27T06:57:59.451Z,8.60
2018-05-27T06:58:59.330Z,11.40
2018-05-27T06:59:59.208Z,8.90
2018-05-27T07:00:59.086Z,9.50
2018-05-27T07:01:58.965Z,8.00
2018-05-27T07:02:59.157Z,8.30
2018-05-27T07:03:58.723Z,7.90
2018-05-27T07:04:58.651Z,8.60
2018-05-27T07:05:58.480Z,9.50
2018-05-27T07:06:58.358Z,6.70
2018-05-27T07:07:58.238Z,8.00
2018-05-27T07:08:58.126Z,8.80
2018-05-27T07:09:57.997Z,7.10
2018-05-27T07:10:57.873Z,9.80
2018-05-27T07:11:57.911Z,8.70
2018-05-27T07:12:57.638Z,9.20
2018-05-27T07:13:57.513Z,8.70
2018-05-27T07:14:57.395Z,7.40
2018-05-27T07:15:57.272Z,6.80
2018-05-27T07:16:57.151Z,12.00
2018-05-27T07:17:57.031Z,8.40
2018-05-27T07:18:56.911Z,8.50
2018-05-27T07:19:56.789Z,8.40
2018-05-27T07:20:56.670Z,8.60
2018-05-27T07:21:56.547Z,11.70
2018-05-27T07:22:56.431Z,9.60
2018-05-27T07:23:56.307Z,7.30
2018-05-27T07:24:56.186Z,9.50
2018-05-27T07:25:56.066Z,7.70
2018-05-27T07:26:55.946Z,8.20
2018-05-27T07:27:55.833Z,7.80
2018-05-27T07:28:55.705Z,6.60
2018-05-27T07:29:55.585Z,12.10
2018-05-27T07:30:55.464Z,10.00
2018-05-27T07:31:55.346Z,10.50
2018-05-27T07:32:55.222Z,7.30
2018-05-27T07:33:55.104Z,10.60
2018-05-27T07:34:54.982Z,9.80
2018-05-27T07:35:54.862Z,9.30
2018-05-27T07:36:54.741Z,7.70
2018-05-27T07:37:54.625Z,7.60
2018-05-27T07:38:54.501Z,9.70
2018-05-27T07:39:54.380Z,9.00
2018-05-27T07:40:54.261Z,8.60
2018-05-27T07:41:54.141Z,10.30
2018-05-27T07:42:54.021Z,8.60
2018-05-27T07:43:53.904Z,9.40
2018-05-27T07:44:53.780Z,7.10
2018-05-27T07:45:53.664Z,8.80
2018-05-27T07:46:53.542Z,10.20
2018-05-27T07:47:53.423Z,8.60
2018-05-27T07:48:53.303Z,11.00
2018-05-27T07:49:53.181Z,10.10
2018-05-27T07:50:53.065Z,9.10
2018-05-27T07:51:52.941Z,10.90
2018-05-27T07:52:52.823Z,9.70
2018-05-27T07:53:52.707Z,8.80
2018-05-27T07:54:52.591Z,8.60
2018-05-27T07:55:52.467Z,8.30
2018-05-27T07:56:59.236Z,9.30
2018-05-27T07:57:52.238Z,9.10
2018-05-27T07:58:52.116Z,10.40
2018-05-27T07:59:51.994Z,8.00
2018-05-27T08:00:51.884Z,9.90
2018-05-27T08:01:51.757Z,9.00
2018-05-27T08:02:52.243Z,9.80
2018-05-27T08:03:51.517Z,8.90
2018-05-27T08:04:51.392Z,11.90
2018-05-27T08:05:51.273Z,13.40
2018-05-27T08:06:51.156Z,8.30
2018-05-27T08:07:51.034Z,7.80
2018-05-27T08:08:50.914Z,9.60
2018-05-27T08:09:50.797Z,9.40
2018-05-27T08:10:50.677Z,10.40
2018-05-27T08:11:50.559Z,7.10
2018-05-27T08:12:50.440Z,9.60
2018-05-27T08:13:50.319Z,7.60
2018-05-27T08:14:50.202Z,8.50
2018-05-27T08:15:50.087Z,10.20
2018-05-27T08:16:49.963Z,7.40
2018-05-27T08:17:49.845Z,13.00
2018-05-27T08:18:49.725Z,8.80
2018-05-27T08:19:49.671Z,11.70
2018-05-27T08:20:49.490Z,9.70
2018-05-27T08:21:49.375Z,10.60
2018-05-27T08:22:49.253Z,8.60
2018-05-27T08:23:49.133Z,8.50
2018-05-27T08:24:49.015Z,9.50
2018-05-27T08:25:48.896Z,11.20
2018-05-27T08:26:48.780Z,9.80
2018-05-27T08:27:48.659Z,8.30
2018-05-27T08:28:48.542Z,11.00
2018-05-27T08:29:48.421Z,10.90
2018-05-27T08:30:48.307Z,8.60
2018-05-27T08:31:48.188Z,10.20
2018-05-27T08:32:48.067Z,10.20
2018-05-27T08:33:47.952Z,11.00
2018-05-27T08:34:47.838Z,6.80
2018-05-27T08:35:47.714Z,12.10
2018-05-27T08:36:47.597Z,7.90
2018-05-27T08:37:47.478Z,9.50
2018-05-27T08:38:47.362Z,6.90
2018-05-27T08:39:47.247Z,9.50
2018-05-27T08:40:47.124Z,10.90
2018-05-27T08:41:47.008Z,10.70
2018-05-27T08:42:46.890Z,9.30
2018-05-27T08:43:46.770Z,9.20
2018-05-27T08:44:46.652Z,6.70
2018-05-27T08:45:46.535Z,8.70
2018-05-27T08:46:46.415Z,10.10
2018-05-27T08:47:46.295Z,8.70
2018-05-27T08:48:46.176Z,9.90
2018-05-27T08:49:46.062Z,9.70
2018-05-27T08:50:45.942Z,9.70
2018-05-27T08:51:45.830Z,6.90
2018-05-27T08:52:45.706Z,7.80
2018-05-27T08:53:45.586Z,8.70
2018-05-27T08:54:45.477Z,6.80
2018-05-27T08:55:45.349Z,10.80
2018-05-27T08:56:45.231Z,8.40
2018-05-27T08:57:45.115Z,9.10
2018-05-27T08:58:44.997Z,9.50
2018-05-27T08:59:44.881Z,8.90
2018-05-27T09:00:44.763Z,7.40
2018-05-27T09:01:44.644Z,8.50
2018-05-27T09:02:44.526Z,10.70
2018-05-27T09:03:44.456Z,9.10
2018-05-27T09:04:44.290Z,11.40
2018-05-27T09:05:44.174Z,7.70
2018-05-27T09:06:44.054Z,8.20
2018-05-27T09:07:43.937Z,8.80
2018-05-27T09:08:43.822Z,8.30
2018-05-27T09:09:43.701Z,8.30
2018-05-27T09:10:43.586Z,8.70
2018-05-27T09:11:43.471Z,8.40
2018-05-27T09:12:43.353Z,7.20
2018-05-27T09:13:43.237Z,9.00
2018-05-27T09:14:43.127Z,11.20
2018-05-27T09:15:42.999Z,8.80
2018-05-27T09:16:42.884Z,7.30
2018-05-27T09:17:42.765Z,7.10
2018-05-27T09:18:42.647Z,7.80
2018-05-27T09:19:42.531Z,6.50
2018-05-27T09:20:42.417Z,8.20
2018-05-27T09:21:42.298Z,6.60
2018-05-27T09:22:42.531Z,7.50
2018-05-27T09:23:42.068Z,8.10
2018-05-27T09:24:41.949Z,9.50
2018-05-27T09:25:41.833Z,7.30
2018-05-27T09:26:41.717Z,7.00
2018-05-27T09:27:41.601Z,6.10
2018-05-27T09:28:41.487Z,7.50
2018-05-27T09:29:41.365Z,6.30
2018-05-27T09:30:41.250Z,6.60
2018-05-27T09:31:41.135Z,7.90
2018-05-27T09:32:41.017Z,6.20
2018-05-27T09:33:40.898Z,9.80
2018-05-27T09:34:40.793Z,7.20
2018-05-27T09:35:40.667Z,7.00
2018-05-27T09:36:40.554Z,8.70
2018-05-27T09:37:40.432Z,7.40
2018-05-27T09:38:40.319Z,6.00
2018-05-27T09:39:40.198Z,9.40
2018-05-27T09:40:40.083Z,7.70
2018-05-27T09:41:39.968Z,7.00
2018-05-27T09:42:39.851Z,7.50
2018-05-27T09:43:39.734Z,8.60
2018-05-27T09:44:39.615Z,5.90
2018-05-27T09:45:39.502Z,9.90
2018-05-27T09:46:39.383Z,8.10
2018-05-27T09:47:39.267Z,7.50
2018-05-27T09:48:39.152Z,7.30
2018-05-27T09:49:39.033Z,7.20
2018-05-27T09:50:38.917Z,6.50
2018-05-27T09:51:38.802Z,10.10
2018-05-27T09:52:38.684Z,9.00
2018-05-27T09:53:38.566Z,7.70
2018-05-27T09:54:38.450Z,7.00
2018-05-27T09:55:38.335Z,6.70
2018-05-27T09:56:38.218Z,10.20
2018-05-27T09:57:38.102Z,8.50
2018-05-27T09:58:37.987Z,5.70
2018-05-27T09:59:37.869Z,6.70
2018-05-27T10:00:37.753Z,9.00
2018-05-27T10:01:37.640Z,7.10
2018-05-27T10:02:37.520Z,7.90
2018-05-27T10:03:37.412Z,8.60
2018-05-27T10:04:37.288Z,9.60
2018-05-27T10:05:37.173Z,9.90
2018-05-27T10:06:37.055Z,8.10
2018-05-27T10:07:36.940Z,8.00
2018-05-27T10:08:36.822Z,8.00
2018-05-27T10:09:36.707Z,7.90
2018-05-27T10:10:36.599Z,8.50
2018-05-27T10:11:36.477Z,4.50
2018-05-27T10:12:36.360Z,5.90
2018-05-27T10:13:36.244Z,6.60
2018-05-27T10:14:36.129Z,6.10
2018-05-27T10:15:36.014Z,7.40
2018-05-27T10:16:35.896Z,5.80
2018-05-27T10:17:35.782Z,7.90
2018-05-27T10:18:35.669Z,9.30
2018-05-27T10:19:35.554Z,6.60
2018-05-27T10:20:35.437Z,10.00
2018-05-27T10:21:35.321Z,8.40
2018-05-27T10:22:35.213Z,7.80
2018-05-27T10:23:35.092Z,7.40
2018-05-27T10:24:34.978Z,8.30
2018-05-27T10:25:34.862Z,7.40
2018-05-27T10:26:34.749Z,8.20
2018-05-27T10:27:34.635Z,11.60
2018-05-27T10:28:34.518Z,9.50
2018-05-27T10:29:34.400Z,10.30
2018-05-27T10:30:34.288Z,7.70
2018-05-27T10:31:34.175Z,5.60
2018-05-27T10:32:34.058Z,6.80
2018-05-27T10:33:33.943Z,7.50
2018-05-27T10:34:33.829Z,8.30
2018-05-27T10:35:33.710Z,7.30
2018-05-27T10:36:33.602Z,10.70
2018-05-27T10:37:33.482Z,9.80
2018-05-27T10:38:33.367Z,7.20
2018-05-27T10:39:33.252Z,6.50
2018-05-27T10:40:33.137Z,6.80
2018-05-27T10:41:33.021Z,8.10
2018-05-27T10:42:32.906Z,6.60
2018-05-27T10:43:32.793Z,7.40
2018-05-27T10:44:32.675Z,8.20
2018-05-27T10:45:32.560Z,7.50
2018-05-27T10:46:32.446Z,7.50
2018-05-27T10:47:32.331Z,6.70
2018-05-27T10:48:32.220Z,8.90
2018-05-27T10:49:32.101Z,6.90
2018-05-27T10:50:31.989Z,7.20
2018-05-27T10:51:31.872Z,11.40
2018-05-27T10:52:31.761Z,7.90
2018-05-27T10:53:31.647Z,9.00
2018-05-27T10:54:31.530Z,9.40
2018-05-27T10:55:31.417Z,9.10
2018-05-27T10:56:31.303Z,7.20
2018-05-27T10:57:31.190Z,6.90
2018-05-27T10:58:31.076Z,9.20
2018-05-27T10:59:30.963Z,6.80
2018-05-27T11:00:30.846Z,6.40
2018-05-27T11:01:30.739Z,5.70
2018-05-27T11:02:30.626Z,6.50
2018-05-27T11:03:30.509Z,9.80
2018-05-27T11:04:30.395Z,7.80
2018-05-27T11:05:30.281Z,5.20
2018-05-27T11:06:30.217Z,5.90
2018-05-27T11:07:30.057Z,7.60
2018-05-27T11:08:29.940Z,7.50
2018-05-27T11:09:29.835Z,6.80
2018-05-27T11:10:29.718Z,7.10
2018-05-27T11:11:29.600Z,5.00
2018-05-27T11:12:29.488Z,6.80
2018-05-27T11:13:29.376Z,6.40
2018-05-27T11:14:29.262Z,8.60
2018-05-27T11:15:29.152Z,8.40
2018-05-27T11:16:29.034Z,4.30
2018-05-27T11:17:28.918Z,6.20
2018-05-27T11:18:28.805Z,5.50
2018-05-27T11:19:28.691Z,7.00
2018-05-27T11:20:28.580Z,6.60
2018-05-27T11:21:28.486Z,6.40
2018-05-27T11:22:28.404Z,7.40
2018-05-27T11:23:28.296Z,4.90
2018-05-27T11:24:28.175Z,5.50
2018-05-27T11:25:28.062Z,7.00
2018-05-27T11:26:27.934Z,6.40
2018-05-27T11:27:27.830Z,5.90
2018-05-27T11:28:27.722Z,5.60
2018-05-27T11:29:27.593Z,6.30
2018-05-27T11:30:27.489Z,5.70
2018-05-27T11:31:27.381Z,7.00
2018-05-27T11:32:27.274Z,6.80
2018-05-27T11:33:27.143Z,4.60
2018-05-27T11:34:27.035Z,8.60
2018-05-27T11:35:26.933Z,9.50
2018-05-27T11:36:26.811Z,5.90
2018-05-27T11:37:26.701Z,6.10
2018-05-27T11:38:26.552Z,7.30
2018-05-27T11:39:26.464Z,9.30
2018-05-27T11:40:26.362Z,6.40
2018-05-27T11:41:26.232Z,6.70
2018-05-27T11:42:26.149Z,5.10
2018-05-27T11:43:26.021Z,8.10
2018-05-27T11:44:25.887Z,7.40
2018-05-27T11:45:25.788Z,6.80
2018-05-27T11:46:25.681Z,7.80
2018-05-27T11:47:25.578Z,7.90
2018-05-27T11:48:25.464Z,8.20
2018-05-27T11:49:25.360Z,7.10
2018-05-27T11:50:25.230Z,6.90
2018-05-27T11:51:25.106Z,6.90
2018-05-27T11:52:25.027Z,7.40
2018-05-27T11:53:24.890Z,7.80
2018-05-27T11:54:24.785Z,6.70
2018-05-27T11:55:24.681Z,8.80
2018-05-27T11:56:24.551Z,7.30
2018-05-27T11:57:24.468Z,7.30
2018-05-27T11:58:24.340Z,8.40
2018-05-27T11:59:24.231Z,6.90
2018-05-27T12:00:24.127Z,7.30
2018-05-27T12:01:24.018Z,8.70
2018-05-27T12:02:23.911Z,7.80
2018-05-27T12:03:23.787Z,8.90
2018-05-27T12:04:23.682Z,10.90
2018-05-27T12:05:23.576Z,8.60
2018-05-27T12:06:23.447Z,8.50
2018-05-27T12:07:23.339Z,6.30
2018-05-27T12:08:23.233Z,12.10
2018-05-27T12:09:23.161Z,8.20
2018-05-27T12:10:23.019Z,7.00
2018-05-27T12:11:22.891Z,7.20
2018-05-27T12:12:22.786Z,8.60
2018-05-27T12:13:22.718Z,8.10
2018-05-27T12:14:22.552Z,6.40
2018-05-27T12:15:22.445Z,10.20
2018-05-27T12:16:22.338Z,7.30
2018-05-27T12:17:22.214Z,8.20
2018-05-27T12:18:22.108Z,7.40
2018-05-27T12:19:21.998Z,8.20
2018-05-27T12:20:21.893Z,6.80
2018-05-27T12:21:21.783Z,8.40
2018-05-27T12:22:21.678Z,7.30
2018-05-27T12:23:21.570Z,6.00
2018-05-27T12:24:21.446Z,10.30
2018-05-27T12:25:21.339Z,9.50
2018-05-27T12:26:21.228Z,7.50
2018-05-27T12:27:21.106Z,7.00
2018-05-27T12:28:21.042Z,10.10
2018-05-27T12:29:20.913Z,8.40
2018-05-27T12:30:20.786Z,7.50
2018-05-27T12:31:20.681Z,9.30
2018-05-27T12:32:20.554Z,7.60
2018-05-27T12:33:20.427Z,8.10
2018-05-27T12:34:20.319Z,7.60
2018-05-27T12:35:20.232Z,8.40
2018-05-27T12:36:20.128Z,8.70
2018-05-27T12:37:20.021Z,8.10
2018-05-27T12:38:19.897Z,7.40
2018-05-27T12:39:19.788Z,6.10
2018-05-27T12:40:19.701Z,6.10
2018-05-27T12:41:19.575Z,8.40
2018-05-27T12:42:19.485Z,7.60
2018-05-27T12:43:19.344Z,6.60
2018-05-27T12:44:19.232Z,7.20
2018-05-27T12:45:19.106Z,8.10
2018-05-27T12:46:19.020Z,7.50
2018-05-27T12:47:18.913Z,8.60
2018-05-27T12:48:18.809Z,6.10
2018-05-27T12:49:18.651Z,8.10
2018-05-27T12:50:18.580Z,6.20
2018-05-27T12:51:18.469Z,5.90
2018-05-27T12:52:18.359Z,6.30
2018-05-27T12:53:18.260Z,7.50
2018-05-27T12:54:18.130Z,7.00
2018-05-27T12:55:18.047Z,6.20
2018-05-27T12:56:17.891Z,8.10
2018-05-27T12:57:17.778Z,7.00
2018-05-27T12:58:17.673Z,6.70
2018-05-27T12:59:17.564Z,8.10
2018-05-27T13:00:17.455Z,8.90
2018-05-27T13:01:17.346Z,6.80
2018-05-27T13:02:17.240Z,7.20
2018-05-27T13:03:17.131Z,5.90
2018-05-27T13:04:17.025Z,7.60
2018-05-27T13:05:16.916Z,6.00
2018-05-27T13:06:16.832Z,7.90